DW5993 Weather Reports


Display with metric or nautical units.
time (UTC)temp
F
wind
direction
speed
MPH
gust
MPH
rain 1hr
in
rain 24hr
in
rain mn
in
humidity
%
barometer
mb
20210618093716 81 293 3.0 6.0 0.00 0.00 0.00 20 1017.9
20210618092717 81 270 4.0 6.0 0.00 0.00 0.00 19 1017.9
20210618091722 81 270 4.0 8.0 0.00 0.00 0.00 20 1018.3
20210618090722 80 293 4.0 7.0 0.00 0.00 0.00 20 1018.3
20210618085722 80 338 1.0 3.0 0.00 0.00 0.00 21 1018.4
20210618084717 80 315 3.0 6.0 0.00 0.00 0.00 20 1018.5
20210618083717 81 338 2.0 4.0 0.00 0.00 0.00 20 1018.4
20210618082717 81 293 2.0 3.0 0.00 0.00 0.00 20 1018.4
20210618081716 81 315 3.0 4.0 0.00 0.00 0.00 20 1017.9
20210618080717 81 270 4.0 8.0 0.00 0.00 0.00 20 1017.9
20210618075722 79 248 2.0 11.0 0.00 0.00 0.00 22 1017.4
20210618074717 75 180 4.0 8.0 0.00 0.00 0.00 27 1017.1
20210618073717 72 23 1.0 2.0 0.00 0.00 0.00 36 1016.6
20210618072717 72 0.0 2.0 0.00 0.00 0.00 36 1016.9
20210618071716 73 23 1.0 1.0 0.00 0.00 0.00 35 1017.4
20210618070717 75 0.0 0.0 0.00 0.00 0.00 33 1017.6
20210618065716 77 293 2.0 4.0 0.00 0.00 0.00 29 1017.7
20210618064717 73 23 1.0 3.0 0.00 0.00 0.00 34 1017.2
20210618063716 71 248 1.0 2.0 0.00 0.00 0.00 39 1018.3
20210618062716 71 248 1.0 1.0 0.00 0.00 0.00 39 1017.9
20210618061716 72 0.0 0.0 0.00 0.00 0.00 39 1017.6
20210618060716 72 248 1.0 2.0 0.00 0.00 0.00 38 1017.3
20210618055720 72 248 1.0 1.0 0.00 0.00 0.00 38 1017.3
20210618054716 72 248 1.0 1.0 0.00 0.00 0.00 37 1016.9
20210618053715 73 135 1.0 1.0 0.00 0.00 0.00 35 1017.2
20210618052715 74 135 1.0 1.0 0.00 0.00 0.00 37 1018.0
20210618051715 73 135 1.0 1.0 0.00 0.00 0.00 38 1017.4
20210618050715 74 135 1.0 2.0 0.00 0.00 0.00 38 1017.9
20210618045715 74 135 1.0 1.0 0.00 0.00 0.00 37 1017.6
20210618044715 74 135 1.0 1.0 0.00 0.00 0.00 35 1017.5
20210618043717 76 0.0 1.0 0.00 0.00 0.00 34 1017.3
20210618042715 77 0.0 1.0 0.00 0.00 0.00 31 1017.9
20210618041718 76 45 1.0 2.0 0.00 0.00 0.00 32 1017.3
20210618040718 76 45 1.0 2.0 0.00 0.00 0.00 31 1017.1
20210618035718 77 0.0 0.0 0.00 0.00 0.00 31 1016.6
20210618034717 79 45 1.0 2.0 0.00 0.00 0.00 27 1016.4
20210618033718 81 0.0 0.0 0.00 0.00 0.00 25 1016.3
20210618032717 83 45 2.0 4.0 0.00 0.00 0.00 22 1016.7
20210618031717 84 315 2.0 3.0 0.00 0.00 0.00 20 1016.7
20210618030717 83 338 1.0 2.0 0.00 0.00 0.00 24 1016.4
20210618025717 83 0.0 2.0 0.00 0.00 0.00 21 1016.1
20210618024717 82 315 1.0 2.0 0.00 0.00 0.00 24 1015.8
20210618023717 80 315 1.0 2.0 0.00 0.00 0.00 29 1015.7
20210618022717 80 0.0 1.0 0.00 0.00 0.00 32 1015.8
20210618021718 79 315 1.0 1.0 0.00 0.00 0.00 34 1015.2
20210618020722 80 315 1.0 1.0 0.00 0.00 0.00 37 1015.1
20210618015722 82 0.0 0.0 0.00 0.00 0.00 34 1015.2
20210618014718 83 0.0 1.0 0.00 0.00 0.00 33 1015.4
20210618013718 82 293 1.0 1.0 0.00 0.00 0.00 34 1014.5
20210618012717 84 293 1.0 1.0 0.00 0.00 0.00 31 1014.9
20210618011717 86 0.0 0.0 0.00 0.00 0.00 25 1015.1
20210618010716 89 0.0 0.0 0.00 0.00 0.00 22 1015.5
20210618005718 89 293 1.0 1.0 0.00 0.00 0.00 20 1015.8
20210618004717 89 0 3.0 5.0 0.00 0.00 0.00 18 1015.4
20210618003717 89 315 1.0 2.0 0.00 0.00 0.00 17 1015.4
20210618002717 90 293 1.0 2.0 0.00 0.00 0.00 18 1015.5
20210618001717 90 158 2.0 4.0 0.00 0.00 0.00 17 1015.3
20210618000717 91 293 3.0 6.0 0.00 0.00 0.00 17 1015.6
20210617235718 93 338 1.0 2.0 0.00 0.00 0.00 18 1016.3
20210617234718 92 338 2.0 3.0 0.00 0.00 0.00 18 1016.1
20210617233717 92 293 3.0 4.0 0.00 0.00 0.00 16 1014.6
20210617232717 93 293 3.0 5.0 0.00 0.00 0.00 18 1014.3
20210617231717 94 225 1.0 2.0 0.00 0.00 0.00 23 1014.5
20210617230716 93 158 1.0 3.0 0.00 0.00 0.00 18 1014.1
20210617225723 94 158 4.0 6.0 0.00 0.00 0.00 15 1014.4
20210617224717 94 180 1.0 2.0 0.00 0.00 0.00 16 1014.7
20210617223717 95 180 3.0 5.0 0.00 0.00 0.00 15 1015.3
20210617222717 95 158 2.0 4.0 0.00 0.00 0.00 17 1016.1
20210617221717 93 158 2.0 4.0 0.00 0.00 0.00 17 1015.8
20210617220717 94 158 4.0 7.0 0.00 0.00 0.00 17 1015.8
20210617215717 93 158 3.0 4.0 0.00 0.00 0.00 18 1016.0
20210617214717 93 180 2.0 4.0 0.00 0.00 0.00 18 1015.7
20210617213718 94 158 4.0 8.0 0.00 0.00 0.00 16 1015.4
20210617212717 94 203 2.0 4.0 0.00 0.00 0.00 14 1015.0
20210617211717 96 158 3.0 7.0 0.00 0.00 0.00 14 1015.8
20210617210717 96 113 2.0 4.0 0.00 0.00 0.00 17 1016.1
20210617205717 96 135 2.0 3.0 0.00 0.00 0.00 15 1016.5
20210617204717 97 180 3.0 5.0 0.00 0.00 0.00 17 1016.5
20210617203717 97 180 3.0 6.0 0.00 0.00 0.00 16 1016.6
20210617202717 96 180 1.0 1.0 0.00 0.00 0.00 19 1017.1
20210617201717 94 158 3.0 4.0 0.00 0.00 0.00 20 1017.6
20210617200717 95 248 1.0 4.0 0.00 0.00 0.00 21 1018.5
20210617195717 93 0.0 1.0 0.00 0.00 0.00 25 1018.4
20210617194717 93 0.0 1.0 0.00 0.00 0.00 21 1018.7
20210617193717 93 0.0 1.0 0.00 0.00 0.00 20 1018.8
20210617192717 94 158 3.0 4.0 0.00 0.00 0.00 17 1018.7
20210617191719 96 0.0 1.0 0.00 0.00 0.00 10 1018.7
20210617190717 96 338 1.0 4.0 0.00 0.00 0.00 13 1018.9
20210617185717 96 23 2.0 5.0 0.00 0.00 0.00 10 1018.9
20210617184718 97 90 1.0 2.0 0.00 0.00 0.00 15 1019.2
20210617183716 103 90 1.0 2.0 0.00 0.00 0.00 16 1020.5
20210617182716 101 45 1.0 1.0 0.00 0.00 0.00 16 1020.2
20210617181717 99 0.0 1.0 0.00 0.00 0.00 17 1019.4
20210617180716 96 23 1.0 2.0 0.00 0.00 0.00 22 1018.8
20210617175722 97 293 1.0 3.0 0.00 0.00 0.00 19 1018.8
20210617174718 95 68 1.0 2.0 0.00 0.00 0.00 18 1018.8
20210617173717 96 113 2.0 3.0 0.00 0.00 0.00 19 1019.1
20210617172716 98 338 1.0 2.0 0.00 0.00 0.00 18 1019.9
20210617171717 96 0.0 1.0 0.00 0.00 0.00 22 1020.0
20210617170717 96 338 1.0 1.0 0.00 0.00 0.00 20 1020.6
20210617165717 94 338 1.0 2.0 0.00 0.00 0.00 21 1020.5
20210617164717 94 315 1.0 1.0 0.00 0.00 0.00 23 1020.7
20210617163717 91 135 1.0 2.0 0.00 0.00 0.00 22 1019.9
20210617162716 94 0.0 1.0 0.00 0.00 0.00 21 1020.7
20210617161717 90 158 2.0 3.0 0.00 0.00 0.00 21 1020.0
20210617160716 91 0.0 1.0 0.00 0.00 0.00 21 1020.4
20210617155717 88 0.0 1.0 0.00 0.00 0.00 36 1020.3
20210617154716 86 158 1.0 2.0 0.00 0.00 0.00 36 1019.9
20210617153717 84 158 1.0 2.0 0.00 0.00 0.00 38 1019.8
20210617152716 85 135 2.0 4.0 0.00 0.00 0.00 43 1020.4
20210617151717 87 0.0 2.0 0.00 0.00 0.00 35 1020.4
20210617150717 86 0.0 0.0 0.00 0.00 0.00 34 1020.1
20210617145717 86 0.0 0.0 0.00 0.00 0.00 35 1020.1
20210617144716 85 0.0 1.0 0.00 0.00 0.00 30 1019.3
20210617143716 85 315 1.0 2.0 0.00 0.00 0.00 22 1018.9
20210617142717 84 135 1.0 1.0 0.00 0.00 0.00 26 1019.4
20210617141716 82 23 2.0 4.0 0.00 0.00 0.00 23 1019.0
20210617140722 79 270 1.0 2.0 0.00 0.00 0.00 31 1018.4
20210617135718 78 270 1.0 1.0 0.00 0.00 0.00 38 1018.3
20210617134717 77 270 1.0 1.0 0.00 0.00 0.00 35 1018.5
20210617133717 73 270 1.0 2.0 0.00 0.00 0.00 49 1018.5
20210617132717 73 0.0 0.0 0.00 0.00 0.00 45 1018.4
20210617131717 73 0.0 1.0 0.00 0.00 0.00 44 1018.7
20210617130717 74 0.0 0.0 0.00 0.00 0.00 40 1018.3
20210617125717 75 270 1.0 2.0 0.00 0.00 0.00 34 1018.7
20210617124723 73 270 1.0 3.0 0.00 0.00 0.00 32 1018.3
20210617123716 73 270 2.0 4.0 0.00 0.00 0.00 29 1018.2
20210617122716 75 270 1.0 3.0 0.00 0.00 0.00 26 1018.3
20210617121717 75 270 2.0 4.0 0.00 0.00 0.00 24 1018.3
20210617120717 76 270 1.0 3.0 0.00 0.00 0.00 22 1018.5
20210617115717 77 270 1.0 2.0 0.00 0.00 0.00 22 1018.8
20210617114716 76 270 2.0 4.0 0.00 0.00 0.00 21 1018.6
20210617113716 68 270 1.0 2.0 0.00 0.00 0.00 32 1017.3
20210617112716 65 270 1.0 2.0 0.00 0.00 0.00 40 1016.7
20210617111717 65 0.0 1.0 0.00 0.00 0.00 40 1016.5
20210617110718 66 270 1.0 2.0 0.00 0.00 0.00 39 1017.1
20210617105717 67 158 1.0 2.0 0.00 0.00 0.00 36 1017.1
20210617104717 69 0.0 0.0 0.00 0.00 0.00 33 1017.1
20210617103717 71 0.0 1.0 0.00 0.00 0.00 30 1017.3
20210617102717 75 0.0 1.0 0.00 0.00 0.00 25 1017.9
20210617101717 76 270 3.0 8.0 0.00 0.00 0.00 22 1018.3
20210617100716 75 23 2.0 5.0 0.00 0.00 0.00 25 1018.5
20210617095717 75 270 1.0 2.0 0.00 0.00 0.00 25 1018.2
20210617094716 74 248 2.0 3.0 0.00 0.00 0.00 25 1018.6